Malaspina — WI6803 — position and weather

sailwx.info

Track history (hours):
 
Tides and Currents Weather Stations Pressure Air Temp Water Temp Dewpoint Dewpoint Depression Visibility Wind Speed Wind Dir Waves Ship Positions

Malaspina

Owner: ALASKA, STATE OF, ANCHORAGE, AK. More information available from US FCC via Universal Licensing System and Coast Guard Vessel Documentation Center.

Last reported at 2018-Dec-28 04:48 UTC. Time now 2019-Feb-23 16:41 UTC.
Position N 58°13' W 135°20'.
Warning: this ship's position is 57 days out of date.

Type: Ship. MMSI: 367143000.

Date/timePositionNaut miles runAvg speedWind from/ knotsBaromVisibWave heightAir tempDewpointWater temp
2018-Dec-28 04:48N 58°13' W 135°20'414.9
2018-Dec-28 04:30N 58°15' W 135°28'815.5
2018-Dec-28 04:00N 58°18' W 135°41'510.6
2018-Dec-28 03:30N 58°23' W 135°44'0 0.0
2018-Dec-28 03:00N 58°23' W 135°44'0 0.0
2018-Dec-28 02:30N 58°23' W 135°44'3 5.7
2018-Dec-28 02:00N 58°20' W 135°43'816.4
2018-Dec-28 01:30N 58°14' W 135°33'714.1
2018-Dec-28 00:59N 58°07' W 135°28'1 0.5
2018-Dec-27 23:56N 58°07' W 135°27'1 3.0
2018-Dec-27 23:28N 58°08' W 135°28'  
2018-Dec-23 20:41N 58°09' W 135°18'316.1
2018-Dec-23 20:30N 58°10' W 135°24'3 5.6
2018-Dec-23 19:54N 58°07' W 135°27'0 0.0
2018-Dec-23 19:30N 58°07' W 135°27'1 2.3
2018-Dec-23 19:00N 58°08' W 135°29'  
2018-Dec-21 00:33N 58°14' W 135°24'116.9
2018-Dec-21 00:30N 58°14' W 135°25'816.4
2018-Dec-21 00:00N 58°18' W 135°40'612.6
2018-Dec-20 23:30N 58°23' W 135°44'0 0.0
2018-Dec-20 22:57N 58°23' W 135°44'0 0.1
2018-Dec-20 22:30N 58°23' W 135°44'510.0
2018-Dec-20 22:00N 58°18' W 135°41'917.2
2018-Dec-20 21:30N 58°13' W 135°29'255 5.0
2018-Dec-18 18:03N 54°46' W 130°60'116.4
2018-Dec-18 18:00N 54°45' W 130°58'1017.1
2018-Dec-18 17:24N 54°38' W 130°45'717.0
2018-Dec-18 16:59N 54°32' W 130°39'918.0
2018-Dec-18 16:30N 54°24' W 130°37'917.3
2018-Dec-18 16:00N 54°16' W 130°30'510.7
2018-Dec-18 15:31N 54°15' W 130°21'3 5.0
2018-Dec-18 14:57N 54°18' W 130°21'0 0.0
2018-Dec-18 14:28N 54°18' W 130°21'0 0.0
2018-Dec-18 14:00N 54°18' W 130°21'0 0.0
2018-Dec-18 13:30N 54°18' W 130°21'0 0.0
2018-Dec-18 13:01N 54°18' W 130°21'0 0.1
2018-Dec-18 12:31N 54°18' W 130°21'2 4.7
2018-Dec-18 12:01N 54°15' W 130°21'4 8.2
2018-Dec-18 11:30N 54°15' W 130°28'713.7
2018-Dec-18 11:00N 54°20' W 130°36'713.8
2018-Dec-18 10:30N 54°27' W 130°38'714.6
2018-Dec-18 10:00N 54°34' W 130°40'  
Track history (hours):
 
Tides and Currents Weather Stations Pressure Air Temp Water Temp Dewpoint Dewpoint Depression Visibility Wind Speed Wind Dir Waves Ship Positions

Malaspina

Owner: ALASKA, STATE OF, ANCHORAGE, AK. More information available from US FCC via Universal Licensing System and Coast Guard Vessel Documentation Center.

Last reported at 2018-Dec-28 04:48 UTC. Time now 2019-Feb-23 16:41 UTC.
Position N 58°13' W 135°20'.
Warning: this ship's position is 57 days out of date.

Type: Ship. MMSI: 367143000.

Date/timePositionNaut miles runAvg speedWind from/ knotsBaromVisibWave heightAir tempDewpointWater temp
2018-Dec-28 04:48N 58°13' W 135°20'414.9
2018-Dec-28 04:30N 58°15' W 135°28'815.5
2018-Dec-28 04:00N 58°18' W 135°41'510.6
2018-Dec-28 03:30N 58°23' W 135°44'0 0.0
2018-Dec-28 03:00N 58°23' W 135°44'0 0.0
2018-Dec-28 02:30N 58°23' W 135°44'3 5.7
2018-Dec-28 02:00N 58°20' W 135°43'816.4
2018-Dec-28 01:30N 58°14' W 135°33'714.1
2018-Dec-28 00:59N 58°07' W 135°28'1 0.5
2018-Dec-27 23:56N 58°07' W 135°27'1 3.0
2018-Dec-27 23:28N 58°08' W 135°28'  
2018-Dec-23 20:41N 58°09' W 135°18'316.1
2018-Dec-23 20:30N 58°10' W 135°24'3 5.6
2018-Dec-23 19:54N 58°07' W 135°27'0 0.0
2018-Dec-23 19:30N 58°07' W 135°27'1 2.3
2018-Dec-23 19:00N 58°08' W 135°29'  
2018-Dec-21 00:33N 58°14' W 135°24'116.9
2018-Dec-21 00:30N 58°14' W 135°25'816.4
2018-Dec-21 00:00N 58°18' W 135°40'612.6
2018-Dec-20 23:30N 58°23' W 135°44'0 0.0
2018-Dec-20 22:57N 58°23' W 135°44'0 0.1
2018-Dec-20 22:30N 58°23' W 135°44'510.0
2018-Dec-20 22:00N 58°18' W 135°41'917.2
2018-Dec-20 21:30N 58°13' W 135°29'255 5.0
2018-Dec-18 18:03N 54°46' W 130°60'116.4
2018-Dec-18 18:00N 54°45' W 130°58'1017.1
2018-Dec-18 17:24N 54°38' W 130°45'717.0
2018-Dec-18 16:59N 54°32' W 130°39'918.0
2018-Dec-18 16:30N 54°24' W 130°37'917.3
2018-Dec-18 16:00N 54°16' W 130°30'510.7
2018-Dec-18 15:31N 54°15' W 130°21'3 5.0
2018-Dec-18 14:57N 54°18' W 130°21'0 0.0
2018-Dec-18 14:28N 54°18' W 130°21'0 0.0
2018-Dec-18 14:00N 54°18' W 130°21'0 0.0
2018-Dec-18 13:30N 54°18' W 130°21'0 0.0
2018-Dec-18 13:01N 54°18' W 130°21'0 0.1
2018-Dec-18 12:31N 54°18' W 130°21'2 4.7
2018-Dec-18 12:01N 54°15' W 130°21'4 8.2
2018-Dec-18 11:30N 54°15' W 130°28'713.7
2018-Dec-18 11:00N 54°20' W 130°36'713.8
2018-Dec-18 10:30N 54°27' W 130°38'714.6
2018-Dec-18 10:00N 54°34' W 130°40'  

Dump ship's entire track history